createdAt,value
2022-12-26T00:01:05.739Z,99.90
2022-12-26T00:03:38.185Z,99.90
2022-12-26T00:06:11.277Z,99.90
2022-12-26T00:08:38.950Z,99.90
2022-12-26T00:11:06.284Z,99.90
2022-12-26T00:13:39.738Z,99.90
2022-12-26T00:16:11.866Z,99.90
2022-12-26T00:18:39.983Z,99.90
2022-12-26T00:21:09.080Z,99.90
2022-12-26T00:23:37.104Z,99.90
2022-12-26T00:26:09.901Z,99.90
2022-12-26T00:28:37.709Z,99.90
2022-12-26T00:31:16.610Z,99.90
2022-12-26T00:33:44.203Z,99.90
2022-12-26T00:36:14.871Z,99.90
2022-12-26T00:38:44.524Z,99.90
2022-12-26T00:41:13.425Z,99.90
2022-12-26T00:43:41.520Z,99.90
2022-12-26T00:46:09.927Z,99.90
2022-12-26T00:48:38.011Z,99.90
2022-12-26T00:51:06.362Z,99.90
2022-12-26T00:53:34.046Z,99.90
2022-12-26T00:56:01.470Z,99.90
2022-12-26T00:58:29.007Z,99.90
2022-12-26T01:00:56.484Z,99.90
2022-12-26T01:03:23.964Z,99.90
2022-12-26T01:05:52.161Z,99.90
2022-12-26T01:08:24.625Z,99.90
2022-12-26T01:10:53.241Z,99.90
2022-12-26T01:13:21.361Z,99.90
2022-12-26T01:15:53.781Z,99.90
2022-12-26T01:18:22.057Z,99.90
2022-12-26T01:20:49.542Z,99.90
2022-12-26T01:23:17.468Z,99.90
2022-12-26T01:26:15.653Z,99.90
2022-12-26T01:28:33.248Z,99.90
2022-12-26T01:31:04.956Z,99.90
2022-12-26T01:33:33.452Z,99.90
2022-12-26T01:36:00.891Z,99.90
2022-12-26T01:38:28.826Z,99.90
2022-12-26T01:41:14.780Z,99.90
2022-12-26T01:43:53.328Z,99.90
2022-12-26T01:46:42.993Z,99.90
2022-12-26T01:49:30.742Z,99.90
2022-12-26T01:52:01.997Z,99.90
2022-12-26T01:54:40.391Z,99.90
2022-12-26T01:57:24.335Z,99.90
2022-12-26T01:59:52.539Z,99.90
2022-12-26T02:02:23.159Z,99.90
2022-12-26T02:05:10.853Z,99.90
2022-12-26T02:07:44.381Z,99.90
2022-12-26T02:10:17.607Z,99.90
2022-12-26T02:12:45.225Z,99.90
2022-12-26T02:15:16.713Z,99.90
2022-12-26T02:17:44.255Z,99.90
2022-12-26T02:20:28.459Z,99.90
2022-12-26T02:23:23.128Z,99.90
2022-12-26T02:26:23.213Z,99.90
2022-12-26T02:29:18.579Z,99.90
2022-12-26T02:32:23.054Z,99.90
2022-12-26T02:35:05.727Z,99.90
2022-12-26T02:37:39.321Z,99.90
2022-12-26T02:40:34.142Z,99.90
2022-12-26T02:43:32.260Z,99.90
2022-12-26T02:46:31.853Z,99.90
2022-12-26T02:49:11.495Z,99.90
2022-12-26T02:52:38.102Z,99.90
2022-12-26T02:55:30.092Z,99.90
2022-12-26T02:58:25.795Z,99.90
2022-12-26T03:01:17.657Z,99.90
2022-12-26T03:04:05.934Z,99.90
2022-12-26T03:06:54.388Z,99.90
2022-12-26T03:09:45.145Z,99.90
2022-12-26T03:12:56.676Z,99.90
2022-12-26T03:15:28.047Z,99.90
2022-12-26T03:18:04.722Z,99.90
2022-12-26T03:20:37.214Z,99.90
2022-12-26T03:23:11.188Z,99.90
2022-12-26T03:26:11.769Z,99.90
2022-12-26T03:28:40.038Z,99.90
2022-12-26T03:33:58.772Z,99.90
2022-12-26T03:36:42.401Z,99.90
2022-12-26T03:39:48.601Z,99.90
2022-12-26T03:42:45.428Z,99.90
2022-12-26T03:45:47.982Z,99.90
2022-12-26T03:48:33.673Z,99.90
2022-12-26T03:51:39.401Z,99.90
2022-12-26T03:57:23.057Z,99.90
2022-12-26T04:00:39.515Z,99.90
2022-12-26T04:03:31.629Z,99.90
2022-12-26T04:06:22.863Z,99.90
2022-12-26T04:09:21.214Z,99.90
2022-12-26T04:12:07.019Z,99.90
2022-12-26T04:15:05.170Z,99.90
2022-12-26T04:18:31.319Z,99.90
2022-12-26T04:21:39.769Z,99.90
2022-12-26T04:24:34.158Z,99.90
2022-12-26T04:27:24.131Z,99.90
2022-12-26T04:30:10.050Z,99.90
2022-12-26T04:33:00.422Z,99.90
2022-12-26T04:36:02.648Z,99.90
2022-12-26T04:38:53.117Z,99.90
2022-12-26T04:41:40.190Z,99.90
2022-12-26T04:46:46.652Z,99.90
2022-12-26T04:49:35.786Z,99.90
2022-12-26T04:52:06.109Z,99.90
2022-12-26T04:54:33.725Z,99.90
2022-12-26T04:57:01.355Z,99.90
2022-12-26T04:59:29.016Z,99.90
2022-12-26T05:02:14.777Z,99.90
2022-12-26T05:05:01.032Z,99.90
2022-12-26T05:07:49.944Z,99.90
2022-12-26T05:10:19.536Z,99.90
2022-12-26T05:12:46.797Z,99.90
2022-12-26T05:15:14.726Z,99.90
2022-12-26T05:18:00.796Z,99.90
2022-12-26T05:20:47.292Z,99.90
2022-12-26T05:23:44.115Z,99.90
2022-12-26T05:26:44.352Z,99.90
2022-12-26T05:29:11.487Z,99.90
2022-12-26T05:31:39.050Z,99.90
2022-12-26T05:34:12.229Z,99.90
2022-12-26T05:36:49.680Z,99.90
2022-12-26T05:39:19.259Z,99.90
2022-12-26T05:41:46.787Z,99.90
2022-12-26T05:44:14.723Z,99.90
2022-12-26T05:46:42.642Z,99.90
2022-12-26T05:49:10.560Z,99.90
2022-12-26T05:51:38.332Z,99.90
2022-12-26T05:54:05.718Z,99.90
2022-12-26T05:56:34.441Z,99.90
2022-12-26T05:59:01.636Z,99.90
2022-12-26T06:01:30.559Z,99.90
2022-12-26T06:04:00.164Z,99.90
2022-12-26T06:06:30.227Z,99.90
2022-12-26T06:08:57.822Z,99.90
2022-12-26T06:11:26.634Z,99.90
2022-12-26T06:13:55.219Z,99.90
2022-12-26T06:16:23.124Z,99.90
2022-12-26T06:18:50.482Z,99.90
2022-12-26T06:21:19.824Z,99.90
2022-12-26T06:23:47.699Z,99.90
2022-12-26T06:26:16.488Z,99.90
2022-12-26T06:28:43.886Z,99.90
2022-12-26T06:31:16.180Z,99.90
2022-12-26T06:33:43.967Z,99.90
2022-12-26T06:36:14.157Z,99.90
2022-12-26T06:38:42.324Z,99.90
2022-12-26T06:41:13.325Z,99.90
2022-12-26T06:43:40.583Z,99.90
2022-12-26T06:46:11.965Z,99.90
2022-12-26T06:48:41.968Z,99.90
2022-12-26T06:51:13.381Z,99.90
2022-12-26T06:56:21.564Z,99.90
2022-12-26T06:58:54.789Z,99.90
2022-12-26T07:01:23.032Z,99.90
2022-12-26T07:03:53.064Z,99.90
2022-12-26T07:06:27.971Z,99.90
2022-12-26T07:08:58.676Z,99.90
2022-12-26T07:11:29.860Z,99.90
2022-12-26T07:13:57.394Z,99.90
2022-12-26T07:16:25.681Z,99.90
2022-12-26T07:18:57.011Z,99.90
2022-12-26T07:21:25.533Z,99.90
2022-12-26T07:23:54.605Z,99.90
2022-12-26T07:26:23.472Z,99.90
2022-12-26T07:28:58.874Z,99.90
2022-12-26T07:31:28.371Z,99.90
2022-12-26T07:33:57.189Z,99.90
2022-12-26T07:36:25.298Z,99.90
2022-12-26T07:38:52.717Z,99.90
2022-12-26T07:41:38.786Z,99.90
2022-12-26T07:44:06.570Z,99.90
2022-12-26T07:46:34.481Z,99.90
2022-12-26T07:49:02.634Z,99.90
2022-12-26T07:51:30.226Z,99.90
2022-12-26T07:53:57.475Z,99.90
2022-12-26T07:56:25.068Z,99.90
2022-12-26T07:58:52.515Z,99.90
2022-12-26T08:01:20.163Z,99.90
2022-12-26T08:03:50.013Z,99.90
2022-12-26T08:06:18.762Z,99.90
2022-12-26T08:08:50.811Z,99.90
2022-12-26T08:11:22.521Z,99.90
2022-12-26T08:13:50.323Z,99.90
2022-12-26T08:16:18.735Z,99.90
2022-12-26T08:21:17.871Z,99.90
2022-12-26T08:23:46.360Z,99.90
2022-12-26T08:26:20.623Z,99.90
2022-12-26T08:31:18.709Z,99.90
2022-12-26T08:33:46.020Z,99.90
2022-12-26T08:36:16.900Z,99.90
2022-12-26T08:38:46.100Z,99.90
2022-12-26T08:41:13.813Z,99.90
2022-12-26T08:46:28.532Z,99.90
2022-12-26T08:48:55.912Z,99.90
2022-12-26T08:51:25.139Z,99.90
2022-12-26T08:53:54.402Z,99.90
2022-12-26T08:56:24.844Z,99.90
2022-12-26T08:58:52.440Z,99.90
2022-12-26T09:01:23.477Z,99.90
2022-12-26T09:03:55.285Z,99.90
2022-12-26T09:06:23.151Z,99.90
2022-12-26T09:08:50.765Z,99.90
2022-12-26T09:11:21.413Z,99.90
2022-12-26T09:13:48.775Z,99.90
2022-12-26T09:16:19.608Z,99.90
2022-12-26T09:18:47.698Z,99.90
2022-12-26T09:21:16.381Z,99.90
2022-12-26T09:23:44.022Z,99.90
2022-12-26T09:26:13.315Z,99.90
2022-12-26T09:28:40.944Z,99.90
2022-12-26T09:31:13.789Z,99.90
2022-12-26T09:33:41.171Z,99.90
2022-12-26T09:36:14.884Z,99.90
2022-12-26T09:38:44.053Z,99.90
2022-12-26T09:41:29.634Z,99.90
2022-12-26T09:44:32.668Z,99.90
2022-12-26T09:47:13.040Z,99.90
2022-12-26T09:49:43.413Z,99.90
2022-12-26T09:52:20.972Z,1.00
2022-12-26T09:54:53.142Z,99.90
2022-12-26T09:57:30.735Z,99.90
2022-12-26T10:00:02.111Z,1.00
2022-12-26T10:02:39.946Z,1.00
2022-12-26T10:05:07.689Z,1.00
2022-12-26T10:08:00.695Z,55.40
2022-12-26T10:10:55.021Z,99.90
2022-12-26T10:16:19.093Z,99.90
2022-12-26T10:19:00.610Z,99.90
2022-12-26T10:22:07.007Z,99.90
2022-12-26T10:24:37.340Z,57.50
2022-12-26T10:27:10.908Z,99.90
2022-12-26T10:29:43.100Z,99.90
2022-12-26T10:32:14.901Z,99.90
2022-12-26T10:34:45.859Z,92.60
2022-12-26T10:37:41.153Z,1.00
2022-12-26T13:03:42.227Z,99.90
2022-12-26T13:06:15.463Z,99.90
2022-12-26T13:11:40.151Z,99.90
2022-12-26T13:22:17.854Z,99.90
2022-12-26T13:24:52.089Z,99.90
2022-12-26T13:29:50.615Z,99.90
2022-12-26T13:40:15.126Z,99.90
2022-12-26T13:58:32.750Z,99.90
2022-12-26T14:04:03.823Z,99.90
2022-12-26T14:07:01.632Z,99.90
2022-12-26T14:14:58.846Z,99.90
2022-12-26T14:25:30.537Z,99.90
2022-12-26T14:31:12.297Z,99.90
2022-12-26T14:33:51.757Z,99.90
2022-12-26T14:50:33.082Z,99.90
2022-12-26T15:09:06.199Z,99.90
2022-12-26T15:12:08.816Z,99.90
2022-12-26T15:15:00.331Z,99.90
2022-12-26T15:31:10.511Z,99.90
2022-12-26T15:47:21.768Z,99.90
2022-12-26T16:22:06.364Z,61.40
2022-12-26T19:28:08.817Z,99.90
2022-12-26T19:30:38.982Z,99.90
2022-12-26T19:33:07.492Z,99.90
2022-12-26T19:35:35.053Z,99.90
2022-12-26T19:38:02.316Z,99.90
2022-12-26T19:40:32.867Z,99.90
2022-12-26T19:43:00.141Z,99.90
2022-12-26T19:45:27.705Z,99.90
2022-12-26T19:47:55.167Z,99.90
2022-12-26T19:50:22.922Z,99.90
2022-12-26T19:52:50.175Z,99.90
2022-12-26T19:55:18.038Z,99.90
2022-12-26T19:57:46.439Z,99.90
2022-12-26T20:00:15.165Z,99.90
2022-12-26T20:02:42.823Z,82.10
2022-12-26T20:05:11.278Z,1.00
2022-12-26T20:07:38.666Z,99.90
2022-12-26T20:10:06.550Z,1.00
2022-12-26T20:12:34.190Z,99.90
2022-12-26T20:15:01.745Z,99.90
2022-12-26T20:17:29.342Z,99.90
2022-12-26T20:19:59.041Z,1.00
2022-12-26T20:22:26.497Z,1.00
2022-12-26T20:24:54.004Z,99.90
2022-12-26T20:27:22.634Z,99.90
2022-12-26T20:29:50.274Z,1.00
2022-12-26T20:32:17.651Z,99.90
2022-12-26T20:34:45.225Z,99.90
2022-12-26T20:37:12.770Z,99.90
2022-12-26T20:39:40.527Z,99.90
2022-12-26T20:42:08.445Z,99.90
2022-12-26T20:44:41.420Z,99.90
2022-12-26T20:47:09.528Z,99.90
2022-12-26T20:49:37.095Z,99.90
2022-12-26T20:52:04.601Z,99.90
2022-12-26T20:54:32.567Z,97.80
2022-12-26T20:56:59.967Z,99.90
2022-12-26T20:59:27.748Z,69.50
2022-12-26T21:01:55.147Z,92.30
2022-12-26T21:04:23.377Z,58.70
2022-12-26T21:06:52.092Z,46.10
2022-12-26T21:09:19.631Z,81.20
2022-12-26T21:11:46.980Z,96.50
2022-12-26T21:14:20.783Z,99.90
2022-12-26T21:16:54.317Z,96.10
2022-12-26T21:19:24.293Z,60.50
2022-12-26T21:21:53.851Z,99.90
2022-12-26T21:24:29.290Z,99.90
2022-12-26T21:26:56.872Z,99.90
2022-12-26T21:29:27.353Z,99.90
2022-12-26T21:31:56.011Z,99.90
2022-12-26T21:34:26.052Z,99.90
2022-12-26T21:37:12.980Z,99.90
2022-12-26T21:39:42.071Z,99.90
2022-12-26T21:42:09.616Z,99.90
2022-12-26T21:44:37.320Z,99.90
2022-12-26T21:47:07.941Z,99.90
2022-12-26T21:49:36.452Z,99.90
2022-12-26T21:52:05.608Z,99.90
2022-12-26T21:54:51.685Z,99.90
2022-12-26T21:57:19.774Z,99.90
2022-12-26T21:59:56.381Z,99.90
2022-12-26T22:02:44.959Z,99.90
2022-12-26T22:05:12.915Z,99.90
2022-12-26T22:07:40.716Z,99.90
2022-12-26T22:10:08.878Z,97.90
2022-12-26T22:12:55.173Z,99.90
2022-12-26T22:15:41.266Z,99.90
2022-12-26T22:18:08.509Z,99.90
2022-12-26T22:20:36.116Z,99.90
2022-12-26T22:23:04.647Z,99.90
2022-12-26T22:25:32.229Z,99.90
2022-12-26T22:27:59.933Z,94.50
2022-12-26T22:30:27.390Z,98.70
2022-12-26T22:32:54.875Z,91.30
2022-12-26T22:35:22.529Z,70.40
2022-12-26T22:37:49.782Z,78.70
2022-12-26T22:40:17.254Z,99.90
2022-12-26T22:42:44.477Z,69.50
2022-12-26T22:45:11.859Z,79.70
2022-12-26T22:47:39.847Z,98.70
2022-12-26T22:50:07.684Z,98.10
2022-12-26T22:52:34.826Z,78.50
2022-12-26T22:55:02.435Z,82.90
2022-12-26T22:57:29.697Z,70.60
2022-12-26T23:00:08.285Z,62.30
2022-12-26T23:02:36.898Z,90.80
2022-12-26T23:05:05.774Z,87.40
2022-12-26T23:07:33.258Z,94.30
2022-12-26T23:10:01.018Z,99.90
2022-12-26T23:12:43.699Z,96.20
2022-12-26T23:15:25.966Z,90.50
2022-12-26T23:18:47.748Z,65.80
2022-12-26T23:21:44.965Z,43.10
2022-12-26T23:24:24.274Z,24.70
2022-12-26T23:27:17.059Z,46.30
2022-12-26T23:30:03.078Z,18.10
2022-12-26T23:32:31.307Z,1.50
2022-12-26T23:34:58.436Z,1.00
2022-12-26T23:37:26.199Z,1.00
2022-12-26T23:39:53.305Z,1.00
2022-12-26T23:42:21.064Z,1.00
2022-12-26T23:44:48.279Z,1.00
2022-12-26T23:47:15.823Z,1.00
2022-12-26T23:49:42.996Z,1.00
2022-12-26T23:52:10.419Z,1.00
2022-12-26T23:54:37.572Z,1.00
2022-12-26T23:57:05.081Z,1.00
2022-12-26T23:59:32.608Z,1.00
